Hampton Cove, Alabama
Current Conditions -  °F | °C
As of 1:58 PM on Sunday 21 Dec 2014 (Local Time) from KHUA Reporting Station
Broken Clouds Broken Clouds  
Wind Chill: 54°   Ceiling: 3500
Heat Index: 54°   Visibility: 10mi
Dew Point: 41°   Wind: 5mph
Humidity: 62%   Direction: 40°NE
Pressure: 30.07"   Gusts: NA
Location:  34.611°N, 86.4644°W
Report Text: KHUA 211958Z AUTO 04004KT 10SM BKN035 12/05 A3007 RMK AO2 SLP186
Loading
Personal Weather Stations






























Interactive Weather Map New forecast layout! Learn more

10-Day Weather Forecast

Advertisements
Track Severe Weather on mobile